Tropical Cyclones
[Index]
Main Index Home Page Stock Weather Photos Extreme Storms Discussion Storm News and Storm Chasing Reports Tropical Cyclones / Hurricanes / Typhoons Weather Data and Links Wild Fires / Bushfires Weather Observation Techniques Weather Picture Catalogue Tornado Pictures and Reports Stock Video Footage and DVDs for sale
Season 2019-2020 Tropical Cyclone RITA Track Map
Season 2019-2020 Summaries (Operational Data): [AU] [SIO] [SPAC] [SH]
<<- Previous TC | 2019-2020 Season | Next TC ->>

click for intensity scale information  Lat/long Grid: Show Hide

 Date Labels: Show Hide

Operational Tropical Cyclone Data

Name: RITA
Number: 2001

21 Nov 2019 00:00 UTC to 29 Nov 2019 00:00 UTC

    date/time    lat    long     hPa   cat  kts
2019-11-21 00    6.5   162.9    1010         15          
2019-11-21 06    6.7   162.9    1010         15          
2019-11-21 12    6.9   163.0    1010         15          
2019-11-21 18    7.0   163.7    1006         15          
2019-11-22 00    7.1   163.2    1008         15          
2019-11-22 06    7.1   163.3    1005         20          
2019-11-22 12    7.2   165.0    1005         20          
2019-11-22 18    7.4   165.7    1003         20          
2019-11-23 00    7.7   166.3    1003         25          
2019-11-23 06    8.1   167.9    1003         25          
2019-11-23 12    9.3   167.8    1001         30          
2019-11-23 18    9.7   168.0    1000         30          
2019-11-24 00   10.0   168.3     995    1    40          
2019-11-24 06   10.2   168.8     990    1    45          
2019-11-24 12   10.7   169.1     991    2    50          
2019-11-24 18   11.2   169.4     988    2    55          
2019-11-25 00   11.7   169.8     983    3    65          
2019-11-25 06   12.2   170.4     984    3    65          
2019-11-25 12   12.8   170.4     986    2    60          
2019-11-25 18   13.3   170.0     991    2    55          
2019-11-26 00   13.7   169.8     994    2    50          
2019-11-26 06   14.0   169.7     998    1    40          
2019-11-26 12   14.4   169.5    1000    1    35          
2019-11-26 18   14.8   168.9    1001    1    35          
2019-11-27 00   15.2   168.6    1000         30          
2019-11-27 06   15.4   169.1    1003         25          
2019-11-27 12   15.5   169.3    1004         25          
2019-11-27 18   15.6   169.5    1004         25          
2019-11-28 00   15.7   169.9    1007         15          
2019-11-28 06   15.0   169.4    1010         15          
2019-11-28 12   14.8   169.3    1010         15          
2019-11-28 18   14.3   169.2    1007         15          
2019-11-29 00   14.3   169.7    1010         15          
Winds are 10-min average.

Tropical cyclone tracks developed by Michael Bath using operational warnings and advisories and Google Maps.


[Australian Severe Weather index] [Copyright Notice] [Email Contacts] [Search This Site] [Privacy Policy]
Document: tropical_cyclone_rita.htm Updated: 11 March 2020